KDNL/DNL METAR and TAF weather

Enter ICAO airport designator
Station Type Date Time Source
KDNL METAR 2020/04/05 19:53 UTC NOAA

KDNL 051953Z AUTO 20005KT 10SM BKN060 27/11 A3002 RMK AO2 SLP160 T02720111


Station Type Date Time Source
KDNL Decoded METAR 2020/04/05 19:53 UTC NOAA

AUGUSTA DANIEL FIELD, GA, United States (KDNL) 33-28N 82-02W 130M
Apr 05, 2020 - 03:53 PM EDT / 2020.04.05 1953 UTC
Wind: from the SSW (200 degrees) at 6 MPH (5 KT):0
Visibility: 10 mile(s):0
Sky conditions: mostly cloudy
Temperature: 81.0 F (27.2 C)
Dew Point: 52.0 F (11.1 C)
Relative Humidity: 36%
Pressure (altimeter): 30.02 in. Hg (1016 hPa)
ob: KDNL 051953Z AUTO 20005KT 10SM BKN060 27/11 A3002 RMK AO2 SLP160 T02720111
cycle: 20

Station Type Date Time Source
KDNL TAF 2020/04/05 18:22 UTC NOAA

TAF KDNL 051720Z 0518/0618 15005KT P6SM SCT050
FM060000 VRB03KT P6SM SCT100
FM061000 00000KT 3SM BR SCT015
TEMPO 0610/0612 1SM BR
FM061500 25005KT P6SM SCT250

Example: see airport list